Time;durP1;ratioP1;P1;durP2;ratioP2;P2;SDS_P1;SDS_P2;PMS_P1;PMS_P2;Temp;Humidity;BMP_temperature;BMP_pressure;BME280_temperature;BME280_humidity;BME280_pressure;Samples;Min_cycle;Max_cycle;Signal;HPM_P1;HPM_P2
2023/10/07 00:01:49;;;;;;;16.67;6.18;;;;;;;;;;5096082;28;20019;-63
2023/10/07 00:04:14;;;;;;;13.13;5.45;;;;;;;;;;5107503;28;20044;-63
2023/10/07 00:06:39;;;;;;;9.07;4.50;;;;;;;;;;5113375;28;20011;-64
2023/10/07 00:09:10;;;;;;;13.52;5.88;;;;;;;;;;5102591;28;20020;-63
2023/10/07 00:11:35;;;;;;;15.55;5.53;;;;;;;;;;5097205;28;20084;-64
2023/10/07 00:14:02;;;;;;;13.10;5.35;;;;;;;;;;5105897;28;20111;-64
2023/10/07 00:16:28;;;;;;;14.10;5.90;;;;;;;;;;5100285;28;20560;-64
2023/10/07 00:18:54;;;;;;;19.45;5.82;;;;;;;;;;5095096;28;20058;-63
2023/10/07 00:21:44;;;;;;;14.68;5.50;;;;;;;;;;5113498;28;20081;-64
2023/10/07 00:24:16;;;;;;;13.35;5.07;;;;;;;;;;5101441;28;20069;-64
2023/10/07 00:26:42;;;;;;;18.58;5.95;;;;;;;;;;5094086;28;20474;-63
2023/10/07 00:29:12;;;;;;;14.13;4.88;;;;;;;;;;5098872;28;20467;-63
2023/10/07 00:31:40;;;;;;;19.98;6.07;;;;;;;;;;5095372;28;20420;-63
2023/10/07 00:34:06;;;;;;;11.95;5.25;;;;;;;;;;5099534;28;20028;-63
2023/10/07 00:39:00;;;;;;;16.98;5.32;;;;;;;;;;5091139;28;20024;-61
2023/10/07 00:41:36;;;;;;;15.95;5.97;;;;;;;;;;5109606;28;20486;-59
2023/10/07 00:44:16;;;;;;;17.20;6.28;;;;;;;;;;5107851;28;20387;-60
2023/10/07 00:46:42;;;;;;;16.02;6.05;;;;;;;;;;5110917;28;20094;-59
2023/10/07 00:49:14;;;;;;;11.30;5.20;;;;;;;;;;5105286;28;20413;-61
2023/10/07 00:51:45;;;;;;;17.40;5.47;;;;;;;;;;5101545;28;20020;-60
2023/10/07 00:57:08;;;;;;;13.65;5.10;;;;;;;;;;5087042;28;20141;-61
2023/10/07 00:59:35;;;;;;;14.32;5.47;;;;;;;;;;5105181;28;20027;-60
2023/10/07 01:02:06;;;;;;;16.02;5.43;;;;;;;;;;5105401;28;20027;-60
2023/10/07 01:04:40;;;;;;;17.55;6.90;;;;;;;;;;5102662;28;20480;-61
2023/10/07 01:07:05;;;;;;;18.08;5.68;;;;;;;;;;5113393;28;20015;-60
2023/10/07 01:09:31;;;;;;;12.23;5.00;;;;;;;;;;5113960;28;20024;-60
2023/10/07 01:11:59;;;;;;;13.60;6.15;;;;;;;;;;5113566;28;20066;-59
2023/10/07 01:14:27;;;;;;;13.27;5.75;;;;;;;;;;5113194;28;20031;-61
2023/10/07 01:16:53;;;;;;;13.98;5.38;;;;;;;;;;5113499;28;20593;-60
2023/10/07 01:19:19;;;;;;;16.63;5.93;;;;;;;;;;5113357;28;20055;-61
2023/10/07 01:21:50;;;;;;;14.90;5.57;;;;;;;;;;5119388;27;20038;-61
2023/10/07 01:24:15;;;;;;;14.82;5.88;;;;;;;;;;5116108;27;20467;-59
2023/10/07 01:26:44;;;;;;;13.75;6.13;;;;;;;;;;5113459;28;20043;-59
2023/10/07 01:29:16;;;;;;;11.23;5.72;;;;;;;;;;5113356;28;20011;-60
2023/10/07 01:31:48;;;;;;;;;;;;;;;;;;5113248;28;20047;-60
2023/10/07 01:34:15;;;;;;;14.50;5.57;;;;;;;;;;5112929;28;19908;-59
2023/10/07 01:36:41;;;;;;;15.18;5.60;;;;;;;;;;5115751;28;20035;-61
2023/10/07 01:39:07;;;;;;;13.40;5.30;;;;;;;;;;5117394;28;20391;-63
2023/10/07 01:41:37;;;;;;;14.75;5.80;;;;;;;;;;5117186;28;20031;-62
2023/10/07 01:44:05;;;;;;;14.15;6.50;;;;;;;;;;5117433;28;20038;-60
2023/10/07 01:46:31;;;;;;;17.48;6.35;;;;;;;;;;5117757;28;20070;-60
2023/10/07 01:48:57;;;;;;;17.20;6.55;;;;;;;;;;5117244;28;20042;-59
2023/10/07 01:51:23;;;;;;;17.35;6.60;;;;;;;;;;5121422;27;20431;-59
2023/10/07 01:53:49;;;;;;;18.05;6.45;;;;;;;;;;5138290;27;20030;-60
2023/10/07 01:56:15;;;;;;;18.95;6.25;;;;;;;;;;5121938;27;20072;-59
2023/10/07 01:58:40;;;;;;;14.95;5.88;;;;;;;;;;5117268;28;20094;-60
2023/10/07 02:01:06;;;;;;;20.67;6.15;;;;;;;;;;5117412;28;20098;-59
2023/10/07 02:03:32;;;;;;;16.33;6.15;;;;;;;;;;5117018;28;20023;-60
2023/10/07 02:05:58;;;;;;;17.15;6.65;;;;;;;;;;5116955;28;20039;-58
2023/10/07 02:08:24;;;;;;;16.33;6.47;;;;;;;;;;5117088;28;20015;-61
2023/10/07 02:10:50;;;;;;;13.02;5.55;;;;;;;;;;5117396;28;20088;-61
2023/10/07 02:13:20;;;;;;;13.80;5.70;;;;;;;;;;5116981;28;20023;-60
2023/10/07 02:15:46;;;;;;;12.55;6.20;;;;;;;;;;5116973;28;20043;-61
2023/10/07 02:18:18;;;;;;;18.38;6.88;;;;;;;;;;5116181;28;20023;-60
2023/10/07 02:20:43;;;;;;;14.38;6.55;;;;;;;;;;5116951;28;20019;-61
2023/10/07 02:23:12;;;;;;;13.75;6.30;;;;;;;;;;5116894;28;20016;-61
2023/10/07 02:25:40;;;;;;;16.83;7.25;;;;;;;;;;5116842;28;20019;-60
2023/10/07 02:28:06;;;;;;;16.73;6.97;;;;;;;;;;5116709;28;20012;-61
2023/10/07 02:33:21;;;;;;;18.33;7.30;;;;;;;;;;5116329;28;20035;-62
2023/10/07 02:35:51;;;;;;;18.13;7.63;;;;;;;;;;5098424;28;20375;-60
2023/10/07 02:38:24;;;;;;;12.20;5.78;;;;;;;;;;5116807;28;20095;-62
2023/10/07 02:40:50;;;;;;;16.52;7.00;;;;;;;;;;5115544;28;20130;-60
2023/10/07 02:43:16;;;;;;;14.18;7.38;;;;;;;;;;5116589;28;20090;-63
2023/10/07 02:45:42;;;;;;;18.30;8.20;;;;;;;;;;5116139;28;20058;-62
2023/10/07 02:48:11;;;;;;;16.10;6.72;;;;;;;;;;5114901;28;20438;-64
2023/10/07 02:50:42;;;;;;;16.90;8.18;;;;;;;;;;5116218;28;20030;-62
2023/10/07 02:53:15;;;;;;;14.02;8.13;;;;;;;;;;5120347;27;20058;-58
2023/10/07 02:55:58;;;;;;;16.40;8.95;;;;;;;;;;5116105;28;20487;-62
2023/10/07 02:58:36;;;;;;;18.95;9.20;;;;;;;;;;5116260;28;20421;-61
2023/10/07 03:01:11;;;;;;;20.77;9.18;;;;;;;;;;5115748;28;20055;-60
2023/10/07 03:03:38;;;;;;;20.10;9.95;;;;;;;;;;5115760;28;20023;-61
2023/10/07 03:06:06;;;;;;;17.30;8.18;;;;;;;;;;5077407;28;20040;-60
2023/10/07 03:08:47;;;;;;;18.73;9.32;;;;;;;;;;5095274;28;20412;-60
2023/10/07 03:11:20;;;;;;;13.18;7.50;;;;;;;;;;5095433;28;20471;-61
2023/10/07 03:13:46;;;;;;;20.23;9.32;;;;;;;;;;5095074;28;20036;-62
2023/10/07 03:18:56;;;;;;;16.13;7.95;;;;;;;;;;5094713;28;20081;-61
2023/10/07 03:24:15;;;;;;;18.17;7.85;;;;;;;;;;5094998;28;20110;-60
2023/10/07 03:26:41;;;;;;;18.55;8.50;;;;;;;;;;5095232;28;20426;-61
2023/10/07 03:29:07;;;;;;;21.08;8.75;;;;;;;;;;5095524;28;20035;-59
2023/10/07 03:34:09;;;;;;;16.90;8.50;;;;;;;;;;5095253;28;20079;-61
2023/10/07 03:37:14;;;;;;;17.13;8.60;;;;;;;;;;5094993;28;20038;-61
2023/10/07 03:42:15;;;;;;;19.80;8.20;;;;;;;;;;5094737;28;20490;-63
2023/10/07 03:44:40;;;;;;;20.92;9.45;;;;;;;;;;5095049;28;20027;-60
2023/10/07 03:47:15;;;;;;;21.77;8.32;;;;;;;;;;5095854;28;20028;-62
2023/10/07 03:49:41;;;;;;;18.88;7.55;;;;;;;;;;5106141;28;20020;-62
2023/10/07 03:52:07;;;;;;;21.00;8.40;;;;;;;;;;5094487;28;20020;-62
2023/10/07 03:54:33;;;;;;;16.90;7.53;;;;;;;;;;5094588;28;20369;-59
2023/10/07 03:57:01;;;;;;;19.10;7.30;;;;;;;;;;5076471;28;20076;-61
2023/10/07 03:59:27;;;;;;;24.10;7.82;;;;;;;;;;5092129;28;20027;-59
2023/10/07 04:01:53;;;;;;;21.83;7.63;;;;;;;;;;5094280;28;20396;-61
2023/10/07 04:04:22;;;;;;;18.30;7.45;;;;;;;;;;5099854;28;20039;-62
2023/10/07 04:06:48;;;;;;;20.27;7.55;;;;;;;;;;5114847;28;20376;-62
2023/10/07 04:09:13;;;;;;;19.88;7.18;;;;;;;;;;5114042;28;20020;-60
2023/10/07 04:11:48;;;;;;;19.17;7.22;;;;;;;;;;5114184;27;20038;-61
2023/10/07 04:14:19;;;;;;;13.25;6.22;;;;;;;;;;5114741;28;20394;-62
2023/10/07 04:17:14;;;;;;;19.73;7.55;;;;;;;;;;5114397;28;20068;-60
2023/10/07 04:19:45;;;;;;;16.75;7.30;;;;;;;;;;5112148;28;20092;-60
2023/10/07 04:22:11;;;;;;;17.73;7.20;;;;;;;;;;5113910;28;20027;-62
2023/10/07 04:24:43;;;;;;;21.80;8.20;;;;;;;;;;5114565;28;20424;-61
2023/10/07 04:27:08;;;;;;;15.55;7.22;;;;;;;;;;5114768;28;20015;-60
2023/10/07 04:29:34;;;;;;;24.88;8.35;;;;;;;;;;5114045;28;20012;-60
2023/10/07 04:32:05;;;;;;;17.10;7.88;;;;;;;;;;5114357;28;20023;-62
2023/10/07 04:34:33;;;;;;;17.60;7.72;;;;;;;;;;5114397;28;20029;-62
2023/10/07 04:40:53;;;;;;;16.95;6.80;;;;;;;;;;5114168;28;20502;-61
2023/10/07 04:42:22;;;;;;;11.07;6.57;;;;;;;;;;5111292;28;20080;-61
2023/10/07 04:47:57;;;;;;;17.02;7.68;;;;;;;;;;5113306;28;20027;-60
2023/10/07 04:50:15;;;;;;;16.23;7.90;;;;;;;;;;5111289;28;20137;-60
2023/10/07 04:52:40;;;;;;;20.50;8.35;;;;;;;;;;5113672;28;20480;-61
2023/10/07 04:55:13;;;;;;;21.88;8.45;;;;;;;;;;5113885;28;20027;-59
2023/10/07 04:57:44;;;;;;;14.70;7.70;;;;;;;;;;5113413;28;20027;-59
2023/10/07 05:00:17;;;;;;;19.70;7.63;;;;;;;;;;5114092;28;20360;-59
2023/10/07 05:02:43;;;;;;;18.17;7.95;;;;;;;;;;5113781;28;20376;-59
2023/10/07 05:05:13;;;;;;;17.23;7.28;;;;;;;;;;5113145;28;20122;-59
2023/10/07 05:07:38;;;;;;;20.17;8.43;;;;;;;;;;5113138;28;20015;-59
2023/10/07 05:10:07;;;;;;;22.13;7.60;;;;;;;;;;5113741;28;20011;-60
2023/10/07 05:12:32;;;;;;;18.10;7.93;;;;;;;;;;5112970;28;20030;-60
2023/10/07 05:15:00;;;;;;;22.67;8.63;;;;;;;;;;5113738;28;20019;-60
2023/10/07 05:17:28;;;;;;;21.67;8.57;;;;;;;;;;5113611;28;20460;-60
2023/10/07 05:19:54;;;;;;;19.35;8.63;;;;;;;;;;5113823;28;20460;-60
2023/10/07 05:22:19;;;;;;;18.27;8.45;;;;;;;;;;5113027;28;20033;-60
2023/10/07 05:24:46;;;;;;;17.50;8.75;;;;;;;;;;5113339;28;20084;-60
2023/10/07 05:27:12;;;;;;;23.25;8.73;;;;;;;;;;5113052;28;20085;-58
2023/10/07 05:29:40;;;;;;;18.92;9.13;;;;;;;;;;5113552;28;20028;-60
2023/10/07 05:32:06;;;;;;;19.88;8.82;;;;;;;;;;5112980;28;20102;-60
2023/10/07 05:34:33;;;;;;;20.67;8.95;;;;;;;;;;5113511;28;20062;-59
2023/10/07 05:37:01;;;;;;;23.02;8.85;;;;;;;;;;5115417;28;20395;-60
2023/10/07 05:39:26;;;;;;;23.67;9.00;;;;;;;;;;5113150;28;20527;-60
2023/10/07 05:41:51;;;;;;;23.10;9.13;;;;;;;;;;5113051;28;20224;-60
2023/10/07 05:44:17;;;;;;;29.17;9.48;;;;;;;;;;5113318;28;20027;-62
2023/10/07 05:46:42;;;;;;;20.27;9.32;;;;;;;;;;5113088;28;20027;-58
2023/10/07 05:49:10;;;;;;;19.70;9.43;;;;;;;;;;5112836;28;20023;-61
2023/10/07 05:51:36;;;;;;;21.13;9.50;;;;;;;;;;5111990;28;20144;-59
2023/10/07 05:54:01;;;;;;;20.80;9.65;;;;;;;;;;5112030;28;20044;-59
2023/10/07 05:56:27;;;;;;;23.52;10.35;;;;;;;;;;5113195;28;20028;-60
2023/10/07 05:58:54;;;;;;;21.52;9.27;;;;;;;;;;5113002;28;20050;-61
2023/10/07 06:01:20;;;;;;;25.88;10.02;;;;;;;;;;5113279;28;20095;-59
2023/10/07 06:03:46;;;;;;;25.50;9.95;;;;;;;;;;5113063;28;20016;-61
2023/10/07 06:06:13;;;;;;;22.55;9.40;;;;;;;;;;5113478;28;20479;-59
2023/10/07 06:08:39;;;;;;;22.02;10.10;;;;;;;;;;5113470;28;20007;-59
2023/10/07 06:11:05;;;;;;;24.75;10.73;;;;;;;;;;5113238;28;20371;-60
2023/10/07 06:13:33;;;;;;;23.80;9.90;;;;;;;;;;5112868;28;20019;-60
2023/10/07 06:15:59;;;;;;;25.60;10.23;;;;;;;;;;5112923;28;20426;-61
2023/10/07 06:18:27;;;;;;;21.05;9.20;;;;;;;;;;5113366;28;20022;-60
2023/10/07 06:20:52;;;;;;;25.70;9.88;;;;;;;;;;5112718;28;20020;-62
2023/10/07 06:23:18;;;;;;;22.40;10.40;;;;;;;;;;5114546;28;20023;-60
2023/10/07 06:25:50;;;;;;;28.80;10.80;;;;;;;;;;5116734;28;20027;-59
2023/10/07 06:28:24;;;;;;;19.13;10.10;;;;;;;;;;5117347;28;20379;-63
2023/10/07 06:30:59;;;;;;;23.42;9.80;;;;;;;;;;5116720;28;20438;-63
2023/10/07 06:33:26;;;;;;;25.38;10.60;;;;;;;;;;5116251;28;20023;-64
2023/10/07 06:35:52;;;;;;;26.45;11.73;;;;;;;;;;5116876;28;20020;-64
2023/10/07 06:38:20;;;;;;;23.95;10.93;;;;;;;;;;5116981;28;20020;-63
2023/10/07 06:40:45;;;;;;;23.70;11.25;;;;;;;;;;5116759;28;20011;-60
2023/10/07 06:43:14;;;;;;;23.13;12.00;;;;;;;;;;5116763;28;20023;-61
2023/10/07 06:45:44;;;;;;;28.52;11.63;;;;;;;;;;5116510;28;20455;-58
2023/10/07 06:48:11;;;;;;;24.42;11.70;;;;;;;;;;5115661;28;20043;-61
2023/10/07 06:50:41;;;;;;;18.58;10.75;;;;;;;;;;5115131;28;20028;-64
2023/10/07 06:53:11;;;;;;;24.65;12.02;;;;;;;;;;5097566;28;20044;-64
2023/10/07 06:55:41;;;;;;;22.55;11.35;;;;;;;;;;5115363;28;20028;-63
2023/10/07 06:58:06;;;;;;;28.35;11.73;;;;;;;;;;5116748;28;20422;-65
2023/10/07 07:00:47;;;;;;;26.90;11.57;;;;;;;;;;5115700;28;20028;-64
2023/10/07 07:03:12;;;;;;;24.77;12.30;;;;;;;;;;5115501;28;20023;-65
2023/10/07 07:05:40;;;;;;;33.95;12.90;;;;;;;;;;5107064;28;20399;-65
2023/10/07 07:08:09;;;;;;;24.73;10.77;;;;;;;;;;5100245;28;20031;-64
2023/10/07 07:10:34;;;;;;;29.45;13.25;;;;;;;;;;5095223;28;20099;-65
2023/10/07 07:13:18;;;;;;;29.25;12.63;;;;;;;;;;5099333;28;20052;-65
2023/10/07 07:15:54;;;;;;;23.63;12.50;;;;;;;;;;5100868;28;20579;-66
2023/10/07 07:18:25;;;;;;;22.80;10.77;;;;;;;;;;5116172;28;20020;-65
2023/10/07 07:23:21;;;;;;;24.77;11.15;;;;;;;;;;5095386;28;20032;-66
2023/10/07 07:28:36;;;;;;;23.42;11.10;;;;;;;;;;5049604;28;20170;-66
2023/10/07 07:31:11;;;;;;;27.17;12.43;;;;;;;;;;5052190;28;20059;-68
2023/10/07 07:33:36;;;;;;;25.63;10.80;;;;;;;;;;5053252;28;20519;-66
2023/10/07 07:38:45;;;;;;;25.17;11.15;;;;;;;;;;5066613;28;20063;-64
2023/10/07 07:41:26;;;;;;;23.75;10.93;;;;;;;;;;5070969;28;20048;-66
2023/10/07 07:43:51;;;;;;;21.42;10.88;;;;;;;;;;5072676;28;20437;-66
2023/10/07 07:46:29;;;;;;;27.42;11.27;;;;;;;;;;5066780;28;20112;-65
2023/10/07 07:49:06;;;;;;;23.27;11.55;;;;;;;;;;5053667;28;20548;-66
2023/10/07 07:51:37;;;;;;;23.35;11.60;;;;;;;;;;5056032;28;20043;-65
2023/10/07 07:54:03;;;;;;;27.33;11.27;;;;;;;;;;5052457;28;20136;-66
2023/10/07 07:56:30;;;;;;;21.88;10.02;;;;;;;;;;5052416;28;20033;-66
2023/10/07 07:58:55;;;;;;;20.27;8.70;;;;;;;;;;5052133;28;20048;-63
2023/10/07 08:01:28;;;;;;;29.90;11.68;;;;;;;;;;5052245;28;20024;-59
2023/10/07 08:03:55;;;;;;;22.90;9.02;;;;;;;;;;5051955;28;20048;-58
2023/10/07 08:06:21;;;;;;;22.73;10.63;;;;;;;;;;5103400;28;20074;-60
2023/10/07 08:08:47;;;;;;;22.08;9.63;;;;;;;;;;5114116;28;20051;-60
2023/10/07 08:11:14;;;;;;;20.48;8.57;;;;;;;;;;5112060;27;20023;-60
2023/10/07 08:13:40;;;;;;;23.45;10.18;;;;;;;;;;5111096;27;20020;-60
2023/10/07 08:16:06;;;;;;;21.23;9.82;;;;;;;;;;5112417;28;20114;-60
2023/10/07 08:18:31;;;;;;;24.00;10.60;;;;;;;;;;5114292;27;20024;-59
2023/10/07 08:21:06;;;;;;;19.85;9.73;;;;;;;;;;5114612;27;20007;-60
2023/10/07 08:23:35;;;;;;;23.10;9.75;;;;;;;;;;5114958;27;20475;-59
2023/10/07 08:31:37;;;;;;;19.38;7.75;;;;;;;;;;5032788;28;20045;-63
2023/10/07 08:36:36;;;;;;;;;;;;;;;;;;5032028;28;20025;-62
2023/10/07 08:39:05;;;;;;;20.40;9.88;;;;;;;;;;5031489;28;19980;-61
2023/10/07 08:41:31;;;;;;;18.77;9.35;;;;;;;;;;5030824;28;20029;-62
2023/10/07 08:44:15;;;;;;;18.13;9.90;;;;;;;;;;5031607;28;20029;-63
2023/10/07 08:46:48;;;;;;;21.23;10.35;;;;;;;;;;5030855;28;20478;-64
2023/10/07 08:49:15;;;;;;;19.70;10.02;;;;;;;;;;5031526;28;20040;-62
2023/10/07 08:51:42;;;;;;;18.65;9.68;;;;;;;;;;5031475;28;20090;-61
2023/10/07 08:54:26;;;;;;;20.13;9.23;;;;;;;;;;5031440;28;20033;-62
2023/10/07 08:56:54;;;;;;;19.42;9.27;;;;;;;;;;5031401;28;20094;-65
2023/10/07 08:59:22;;;;;;;19.23;9.77;;;;;;;;;;5031354;28;20064;-61
2023/10/07 09:01:48;;;;;;;19.58;9.02;;;;;;;;;;5031239;28;20032;-63
2023/10/07 09:04:14;;;;;;;22.48;9.45;;;;;;;;;;5035893;28;20041;-58
2023/10/07 09:06:50;;;;;;;22.48;9.82;;;;;;;;;;5087047;28;20476;-61
2023/10/07 09:09:32;;;;;;;18.52;8.85;;;;;;;;;;5093945;28;20452;-63
2023/10/07 09:12:01;;;;;;;19.95;9.80;;;;;;;;;;5093246;28;20141;-63
2023/10/07 09:14:28;;;;;;;29.70;11.23;;;;;;;;;;5093416;28;20494;-63
2023/10/07 09:16:54;;;;;;;16.65;9.25;;;;;;;;;;5092502;28;20106;-63
2023/10/07 09:19:23;;;;;;;26.02;9.68;;;;;;;;;;5092679;28;20050;-63
2023/10/07 09:21:51;;;;;;;19.38;9.43;;;;;;;;;;5091532;28;20524;-64
2023/10/07 09:24:23;;;;;;;18.08;8.43;;;;;;;;;;5093447;28;20525;-64
2023/10/07 09:27:02;;;;;;;18.70;8.13;;;;;;;;;;5093077;28;20028;-63
2023/10/07 09:29:27;;;;;;;15.73;8.15;;;;;;;;;;5092464;28;20032;-64
2023/10/07 09:32:05;;;;;;;19.08;8.85;;;;;;;;;;5092961;28;20043;-63
2023/10/07 09:34:41;;;;;;;22.45;8.40;;;;;;;;;;5093364;28;20423;-62
2023/10/07 09:37:11;;;;;;;15.57;8.02;;;;;;;;;;5092220;28;20437;-64
2023/10/07 09:39:53;;;;;;;16.63;7.80;;;;;;;;;;5092447;28;20020;-65
2023/10/07 09:42:36;;;;;;;18.27;7.97;;;;;;;;;;5080871;28;20024;-64
2023/10/07 09:47:38;;;;;;;19.10;7.35;;;;;;;;;;5090970;28;20027;-65
2023/10/07 09:52:56;;;;;;;15.85;6.57;;;;;;;;;;5093199;28;20036;-66
2023/10/07 09:55:22;;;;;;;13.77;5.60;;;;;;;;;;5093093;28;20123;-64
2023/10/07 09:58:06;;;;;;;12.35;5.50;;;;;;;;;;5095263;28;20484;-66
2023/10/07 10:03:12;;;;;;;13.32;5.90;;;;;;;;;;5097050;28;20035;-67
2023/10/07 10:05:56;;;;;;;13.07;5.03;;;;;;;;;;5113558;27;20047;-66
2023/10/07 10:08:29;;;;;;;17.35;4.65;;;;;;;;;;5125123;27;20039;-66
2023/10/07 10:10:58;;;;;;;13.48;5.63;;;;;;;;;;5137583;27;20063;-67
2023/10/07 10:16:44;;;;;;;18.15;6.13;;;;;;;;;;5002180;28;20129;-67
2023/10/07 10:19:21;;;;;;;16.70;5.30;;;;;;;;;;4994950;28;20503;-67
2023/10/07 10:21:47;;;;;;;11.05;4.63;;;;;;;;;;4994759;28;20817;-66
2023/10/07 10:24:15;;;;;;;14.63;5.75;;;;;;;;;;4997191;28;20046;-66
2023/10/07 10:26:40;;;;;;;12.23;4.60;;;;;;;;;;4994708;28;20026;-66
2023/10/07 10:29:15;;;;;;;12.73;5.00;;;;;;;;;;4995893;28;20608;-65
2023/10/07 10:31:48;;;;;;;12.73;5.47;;;;;;;;;;4996604;28;20077;-66
2023/10/07 10:34:14;;;;;;;14.00;5.28;;;;;;;;;;4993249;28;20042;-66
2023/10/07 10:36:43;;;;;;;16.58;5.57;;;;;;;;;;4994508;28;20029;-66
2023/10/07 10:39:25;;;;;;;12.70;5.32;;;;;;;;;;4995574;28;20042;-66
2023/10/07 10:41:54;;;;;;;12.48;3.55;;;;;;;;;;4994097;28;20019;-66
2023/10/07 10:44:20;;;;;;;13.30;5.15;;;;;;;;;;4994456;28;20033;-67
2023/10/07 10:46:47;;;;;;;14.65;4.93;;;;;;;;;;4994032;28;20494;-66
2023/10/07 10:49:16;;;;;;;14.63;5.53;;;;;;;;;;4994004;28;20030;-67
2023/10/07 10:51:46;;;;;;;15.10;4.85;;;;;;;;;;5003045;28;20625;-65
2023/10/07 10:54:14;;;;;;;15.98;5.22;;;;;;;;;;5113138;28;20076;-66
2023/10/07 10:56:49;;;;;;;12.60;4.70;;;;;;;;;;5115507;28;20085;-65
2023/10/07 10:59:15;;;;;;;13.70;4.47;;;;;;;;;;5106645;28;20063;-66
2023/10/07 11:01:44;;;;;;;12.05;4.60;;;;;;;;;;5111904;27;20475;-66
2023/10/07 11:04:12;;;;;;;12.63;4.07;;;;;;;;;;5109937;28;20044;-65
2023/10/07 11:06:37;;;;;;;15.25;4.30;;;;;;;;;;5096806;28;20016;-65
2023/10/07 11:09:03;;;;;;;13.90;3.97;;;;;;;;;;5094750;28;20460;-65
2023/10/07 11:11:29;;;;;;;14.95;4.20;;;;;;;;;;5095070;28;20032;-64
2023/10/07 11:13:55;;;;;;;13.63;4.00;;;;;;;;;;5095307;28;20077;-65
2023/10/07 11:16:22;;;;;;;17.27;4.22;;;;;;;;;;5095527;28;20024;-65
2023/10/07 11:18:48;;;;;;;11.32;3.70;;;;;;;;;;5095487;28;20020;-65
2023/10/07 11:21:17;;;;;;;13.77;3.65;;;;;;;;;;5095634;28;20081;-65
2023/10/07 11:23:49;;;;;;;14.18;4.47;;;;;;;;;;5095525;28;20417;-65
2023/10/07 11:26:17;;;;;;;12.90;3.50;;;;;;;;;;5095669;28;20426;-67
2023/10/07 11:28:44;;;;;;;14.25;3.90;;;;;;;;;;5095585;28;20032;-65
2023/10/07 11:31:10;;;;;;;11.80;3.38;;;;;;;;;;5095238;28;20039;-59
2023/10/07 11:33:36;;;;;;;11.18;3.42;;;;;;;;;;5095419;28;20024;-60
2023/10/07 11:36:03;;;;;;;8.85;3.25;;;;;;;;;;5095071;28;20541;-59
2023/10/07 11:38:29;;;;;;;10.45;3.20;;;;;;;;;;5095009;28;20157;-59
2023/10/07 11:40:55;;;;;;;13.05;3.55;;;;;;;;;;5095278;28;20107;-60
2023/10/07 11:43:21;;;;;;;13.88;2.92;;;;;;;;;;5109539;28;20020;-63
2023/10/07 11:45:47;;;;;;;8.75;3.20;;;;;;;;;;5115528;28;20031;-62
2023/10/07 11:48:12;;;;;;;9.88;3.20;;;;;;;;;;5077635;28;20044;-60
2023/10/07 11:50:38;;;;;;;13.82;3.50;;;;;;;;;;5063523;28;20045;-60
2023/10/07 11:53:04;;;;;;;14.38;3.58;;;;;;;;;;5074827;28;20025;-60
2023/10/07 11:55:31;;;;;;;13.90;3.53;;;;;;;;;;5074591;28;20477;-63
2023/10/07 11:57:58;;;;;;;11.77;3.22;;;;;;;;;;5073492;28;20362;-59
2023/10/07 12:00:28;;;;;;;16.35;3.30;;;;;;;;;;5073845;28;20024;-60
2023/10/07 12:02:57;;;;;;;12.13;3.40;;;;;;;;;;5074577;28;20082;-60
2023/10/07 12:17:35;;;;;;;11.75;4.22;;;;;;;;;;5110104;27;20416;-65
2023/10/07 12:20:00;;;;;;;10.55;3.20;;;;;;;;;;5110629;28;20096;-66
2023/10/07 12:22:26;;;;;;;11.35;3.70;;;;;;;;;;5110711;28;20024;-66
2023/10/07 12:24:52;;;;;;;8.55;3.08;;;;;;;;;;5110497;28;20031;-66
2023/10/07 12:27:17;;;;;;;9.32;3.30;;;;;;;;;;5110673;28;20182;-66
2023/10/07 12:29:44;;;;;;;11.23;3.35;;;;;;;;;;5110750;28;20047;-66
2023/10/07 12:32:09;;;;;;;11.98;3.60;;;;;;;;;;5110612;28;20354;-68
2023/10/07 12:34:35;;;;;;;12.55;3.53;;;;;;;;;;5110821;28;20034;-66
2023/10/07 12:37:00;;;;;;;13.27;3.53;;;;;;;;;;5110385;28;20097;-66
2023/10/07 12:39:30;;;;;;;12.00;3.10;;;;;;;;;;5107177;28;20474;-60
2023/10/07 12:41:56;;;;;;;13.93;3.85;;;;;;;;;;5110274;28;20028;-61
2023/10/07 12:44:21;;;;;;;12.98;4.50;;;;;;;;;;5109779;28;20039;-62
2023/10/07 12:46:46;;;;;;;12.80;4.40;;;;;;;;;;5109937;28;20058;-62
2023/10/07 12:49:14;;;;;;;13.57;3.70;;;;;;;;;;5103032;28;20386;-62
2023/10/07 12:51:45;;;;;;;11.80;3.10;;;;;;;;;;5093385;27;20047;-62
2023/10/07 12:54:11;;;;;;;11.77;3.42;;;;;;;;;;5094767;27;20058;-62
2023/10/07 12:56:37;;;;;;;11.85;3.60;;;;;;;;;;5099282;27;20044;-61
2023/10/07 12:59:07;;;;;;;15.15;3.72;;;;;;;;;;5110209;28;20020;-60
2023/10/07 13:01:33;;;;;;;13.45;3.58;;;;;;;;;;5104891;28;20040;-61
2023/10/07 13:03:58;;;;;;;10.18;3.22;;;;;;;;;;5106656;27;20584;-63
2023/10/07 13:06:23;;;;;;;13.43;3.58;;;;;;;;;;5102484;28;20382;-60
2023/10/07 13:08:49;;;;;;;14.10;3.55;;;;;;;;;;5109401;28;20051;-62
2023/10/07 13:11:14;;;;;;;11.90;3.50;;;;;;;;;;5095295;28;20025;-61
2023/10/07 13:13:40;;;;;;;10.68;3.60;;;;;;;;;;5092137;28;20023;-62
2023/10/07 13:16:08;;;;;;;14.60;5.97;;;;;;;;;;5076610;28;20064;-63
2023/10/07 13:18:35;;;;;;;10.27;3.83;;;;;;;;;;5022539;28;20468;-62
2023/10/07 13:21:01;;;;;;;10.98;3.97;;;;;;;;;;5011576;28;20467;-64
2023/10/07 13:23:28;;;;;;;11.45;3.63;;;;;;;;;;5012676;28;20026;-60
2023/10/07 13:25:53;;;;;;;10.50;3.55;;;;;;;;;;5012505;28;20059;-61
2023/10/07 13:28:18;;;;;;;10.30;3.63;;;;;;;;;;5012557;28;20014;-59
2023/10/07 13:30:43;;;;;;;12.63;4.03;;;;;;;;;;5012850;28;20494;-63
2023/10/07 13:33:09;;;;;;;14.98;4.10;;;;;;;;;;5013013;28;20030;-61
2023/10/07 13:35:34;;;;;;;11.02;4.22;;;;;;;;;;5012679;28;20050;-62
2023/10/07 13:38:00;;;;;;;15.68;3.67;;;;;;;;;;5012432;28;20014;-62
2023/10/07 13:40:29;;;;;;;11.40;3.90;;;;;;;;;;5012442;28;20083;-61
2023/10/07 13:42:55;;;;;;;13.57;3.70;;;;;;;;;;5012218;28;20025;-60
2023/10/07 13:45:24;;;;;;;9.70;3.33;;;;;;;;;;5012590;28;20028;-63
2023/10/07 13:47:53;;;;;;;16.17;4.22;;;;;;;;;;5012674;28;20082;-66
2023/10/07 13:50:20;;;;;;;13.10;3.78;;;;;;;;;;5012555;28;20025;-66
2023/10/07 13:52:58;;;;;;;11.13;2.90;;;;;;;;;;5012218;28;20083;-67
2023/10/07 13:55:44;;;;;;;12.20;3.47;;;;;;;;;;5012520;28;20029;-66
2023/10/07 13:58:09;;;;;;;14.90;3.50;;;;;;;;;;5012442;28;20029;-67
2023/10/07 14:03:00;;;;;;;14.20;4.82;;;;;;;;;;5012475;28;20026;-66
2023/10/07 14:05:26;;;;;;;14.77;4.32;;;;;;;;;;5011768;28;20053;-67
2023/10/07 14:07:51;;;;;;;11.63;3.90;;;;;;;;;;5008722;28;20033;-66
2023/10/07 14:10:17;;;;;;;14.65;4.43;;;;;;;;;;5009440;28;20367;-66
2023/10/07 14:12:43;;;;;;;11.95;3.90;;;;;;;;;;5021054;28;20454;-67
2023/10/07 14:15:08;;;;;;;11.10;3.90;;;;;;;;;;4985274;27;20050;-65
2023/10/07 14:17:33;;;;;;;10.63;3.38;;;;;;;;;;5021706;28;20037;-69
2023/10/07 14:19:58;;;;;;;15.55;4.30;;;;;;;;;;5017563;28;20036;-68
2023/10/07 14:22:24;;;;;;;11.10;3.40;;;;;;;;;;5001816;28;20395;-66
2023/10/07 14:24:50;;;;;;;9.85;3.22;;;;;;;;;;5019375;28;20057;-68
2023/10/07 14:27:15;;;;;;;12.25;3.40;;;;;;;;;;5065390;28;20073;-66
2023/10/07 14:29:41;;;;;;;12.43;3.75;;;;;;;;;;5027605;28;20096;-66
2023/10/07 14:32:09;;;;;;;12.32;3.95;;;;;;;;;;5010816;28;20028;-68
2023/10/07 14:34:34;;;;;;;11.20;3.90;;;;;;;;;;4994926;28;20022;-66
2023/10/07 14:37:00;;;;;;;13.48;4.18;;;;;;;;;;5010995;28;20475;-67
2023/10/07 14:39:27;;;;;;;15.77;4.18;;;;;;;;;;5011096;28;20018;-66
2023/10/07 14:41:52;;;;;;;11.00;4.07;;;;;;;;;;5010949;28;20037;-67
2023/10/07 14:44:18;;;;;;;10.25;3.15;;;;;;;;;;5011239;28;20030;-65
2023/10/07 14:46:44;;;;;;;9.80;2.90;;;;;;;;;;5002970;28;20383;-68
2023/10/07 14:49:10;;;;;;;12.07;3.78;;;;;;;;;;5004366;28;20026;-67
2023/10/07 14:51:35;;;;;;;13.77;3.70;;;;;;;;;;5011015;28;20022;-66
2023/10/07 14:54:00;;;;;;;11.30;3.30;;;;;;;;;;5011327;28;20018;-66
2023/10/07 14:56:26;;;;;;;13.68;4.47;;;;;;;;;;5010511;28;20416;-66
2023/10/07 14:58:51;;;;;;;15.90;4.50;;;;;;;;;;5010961;28;20376;-66
2023/10/07 15:01:21;;;;;;;15.20;4.07;;;;;;;;;;5011155;28;20022;-65
2023/10/07 15:03:47;;;;;;;13.73;4.07;;;;;;;;;;5010459;28;20026;-66
2023/10/07 15:06:15;;;;;;;11.52;3.78;;;;;;;;;;5011197;28;20021;-66
2023/10/07 15:08:40;;;;;;;14.20;3.75;;;;;;;;;;5008564;28;20075;-67
2023/10/07 15:11:05;;;;;;;12.85;3.92;;;;;;;;;;5010747;28;20026;-65
2023/10/07 15:13:33;;;;;;;12.07;3.20;;;;;;;;;;5011117;28;20410;-65
2023/10/07 15:16:09;;;;;;;11.85;3.55;;;;;;;;;;5000357;28;20423;-66
2023/10/07 15:18:34;;;;;;;11.63;4.00;;;;;;;;;;5004058;28;20026;-66
2023/10/07 15:21:05;;;;;;;12.80;3.70;;;;;;;;;;5004087;28;20509;-65
2023/10/07 15:23:30;;;;;;;15.20;4.23;;;;;;;;;;5006158;28;20047;-67
2023/10/07 15:25:55;;;;;;;13.32;3.72;;;;;;;;;;5065732;28;20110;-66
2023/10/07 15:28:21;;;;;;;15.85;3.83;;;;;;;;;;5010693;28;20420;-65
2023/10/07 15:30:48;;;;;;;11.65;2.72;;;;;;;;;;5011213;28;20018;-66
2023/10/07 15:33:14;;;;;;;11.20;3.53;;;;;;;;;;5010307;28;20155;-66
2023/10/07 15:35:43;;;;;;;10.45;3.45;;;;;;;;;;5011161;28;20487;-67
2023/10/07 15:38:08;;;;;;;15.40;4.03;;;;;;;;;;5010874;28;20433;-67
2023/10/07 15:40:33;;;;;;;16.75;3.90;;;;;;;;;;5010649;28;20018;-66
2023/10/07 15:42:58;;;;;;;13.98;4.50;;;;;;;;;;5008297;28;20389;-66